Aérodrome :
LOGIN :

S'inscrire | Disclaimer

   EN    FR    IT 

 










Légende :    VFR   VFR Marginal   IFR   IFR Intensif   IFR Très Intensif
Visi : 
Plafond : 
>= 8 km
>= 3000ft
5 à 8 km
1000 à 3000 ft
1500m à 5 km
500 à 1000 ft
800 à 1500m
200 à 500 ft
< 800m
< 200 ft
Symboles :   Orages  Brouillard  Fortes neiges  Fortes précipitations  Vent > 20 kt
SIGMETs :   Divers  Orages  Givrage  Turbulence  Onde Orograph.  Cendres Volcan.






- Altitude de l'aérodrome : 138 ft
- Code IATA : RLG


ETNL - Rostock Laage

DERNIER METAR :
  • 191420Z 21009KT 9999 SCT024 07/04 Q1014 BLU+BLU+ TEMPO WHT

METARs EXPIRÉS :
  • 191343Z 22012G22KT 9999 BKN023 08/04 Q1014 WHT WHT
  • 191320Z 22013KT 9999 BKN017 08/04 Q1013 WHT WHT
  • 191220Z 21011KT 9999 BKN016 08/05 Q1012 WHT WHT

TAF TAF ETNL
Valide du 19 à 15h jusqu'au 19 à 21h UTC


191420Z 1915/1921 21010G20KT 9999 NSW SCT025
TEMPO 1915/1918 19015KT 5000 BR BKN020
BECMG 1918/1920 20005KT 3000 BR BKN010
PROB30 1921/1924 VRB03KT 0500 FG VV001 BY ETGL



MET'MAP, la Météo Aéronautique d'un coup d'oeil ! - Copyright ORBIFLY Décembre 2007 - Disclaimer

ORBIFLY MET'MAP TEAM :

Programmation & Développement : Alexandra Zaïnal
Conception & Développement : Baudouin d'Aumeries
Co-Programmation & Développement : Marc-Olivier Méhu
Soutien technique & logistique : Manuel Goepfert

Contact : metmap@orbifly.com




SOURCES & CREDITS :

   NOAA